Time;durP1;ratioP1;P1;durP2;ratioP2;P2;SDS_P1;SDS_P2;PMS_P1;PMS_P2;Temp;Humidity;BMP_temperature;BMP_pressure;BME280_temperature;BME280_humidity;BME280_pressure;Samples;Min_cycle;Max_cycle;Signal;HPM_P1;HPM_P2
2022/12/08 00:02:00;;;;;;;8.38;1.85;;;3.10;99.90;;;;;;6195704;23;20040;-76
2022/12/08 00:04:26;;;;;;;4.45;1.40;;;4.60;99.90;;;;;;6194112;23;20204;-77
2022/12/08 00:09:39;;;;;;;7.72;2.00;;;3.00;99.90;;;;;;6221101;23;20016;-76
2022/12/08 00:12:09;;;;;;;7.50;1.50;;;3.00;99.90;;;;;;6194772;23;20015;-77
2022/12/08 00:14:40;;;;;;;1.58;1.10;;;3.00;99.90;;;;;;6220317;23;20603;-76
2022/12/08 00:17:08;;;;;;;2.75;1.20;;;3.00;99.90;;;;;;6219936;23;20009;-78
2022/12/08 00:19:35;;;;;;;1.48;0.90;;;4.10;99.90;;;;;;6220936;23;20020;-77
2022/12/08 00:22:02;;;;;;;1.40;1.00;;;3.40;99.90;;;;;;6220032;23;20055;-77
2022/12/08 00:24:33;;;;;;;3.17;1.10;;;3.00;99.90;;;;;;6196206;23;20069;-77
2022/12/08 00:27:00;;;;;;;5.07;0.80;;;3.10;99.90;;;;;;6193860;23;20764;-77
2022/12/08 00:29:26;;;;;;;2.35;1.00;;;3.10;99.90;;;;;;6196228;23;20250;-76
2022/12/08 00:31:52;;;;;;;2.92;1.20;;;3.20;99.90;;;;;;6193903;23;20017;-78
2022/12/08 00:34:18;;;;;;;3.50;1.33;;;3.50;99.90;;;;;;6219542;23;20335;-76
2022/12/08 00:36:44;;;;;;;4.45;1.40;;;2.90;99.90;;;;;;6195434;23;20009;-77
2022/12/08 00:39:13;;;;;;;3.03;1.33;;;4.90;99.90;;;;;;6219463;23;20029;-75
2022/12/08 00:44:24;;;;;;;6.13;1.30;;;4.80;99.90;;;;;;6200485;23;20061;-77
2022/12/08 00:46:49;;;;;;;3.65;1.00;;;3.20;99.90;;;;;;6219976;23;20016;-78
2022/12/08 00:49:16;;;;;;;3.22;0.95;;;5.00;99.90;;;;;;6195027;23;20510;-78
2022/12/08 00:51:42;;;;;;;2.95;0.80;;;3.20;99.90;;;;;;6171003;23;20017;-77
2022/12/08 00:54:09;;;;;;;5.57;1.10;;;3.60;99.90;;;;;;6171095;23;20020;-78
2022/12/08 00:56:36;;;;;;;5.50;1.20;;;2.90;99.90;;;;;;6195325;23;20015;-78
2022/12/08 00:59:03;;;;;;;6.05;1.30;;;3.00;99.90;;;;;;6220418;23;20013;-77
2022/12/08 01:01:29;;;;;;;2.72;1.10;;;5.00;99.90;;;;;;6195831;23;20020;-77
2022/12/08 01:03:55;;;;;;;3.60;1.63;;;3.00;99.90;;;;;;6220627;23;20044;-76
2022/12/08 01:06:20;;;;;;;2.90;1.20;;;3.30;99.90;;;;;;6170343;23;20012;-76
2022/12/08 01:08:46;;;;;;;3.15;1.00;;;4.20;99.90;;;;;;6194682;23;20013;-76
2022/12/08 01:11:17;;;;;;;4.35;1.40;;;4.40;99.90;;;;;;6219511;23;20012;-76
2022/12/08 01:13:45;;;;;;;3.17;1.15;;;3.00;99.90;;;;;;6219521;23;20058;-75
2022/12/08 01:16:22;;;;;;;3.13;1.10;;;3.00;99.90;;;;;;6194453;23;20016;-76
2022/12/08 01:18:48;;;;;;;2.70;1.13;;;3.00;99.90;;;;;;6219976;23;20020;-76
2022/12/08 01:21:14;;;;;;;5.65;1.35;;;3.00;99.90;;;;;;6219069;23;20032;-75
2022/12/08 01:23:39;;;;;;;1.40;1.20;;;3.10;99.90;;;;;;6194278;23;20338;-76
2022/12/08 01:26:07;;;;;;;2.97;1.23;;;3.10;99.90;;;;;;6194615;23;20040;-76
2022/12/08 01:28:33;;;;;;;4.53;1.40;;;2.70;99.90;;;;;;6218646;23;20020;-76
2022/12/08 01:31:00;;;;;;;3.00;1.23;;;2.80;99.90;;;;;;6221052;23;20307;-75
2022/12/08 01:33:26;;;;;;;3.83;1.27;;;2.70;99.90;;;;;;6220862;23;20036;-75
2022/12/08 01:35:52;;;;;;;2.83;1.10;;;2.90;99.90;;;;;;6195355;23;20005;-76
2022/12/08 01:38:18;;;;;;;3.15;1.10;;;2.60;99.90;;;;;;6195170;23;20013;-76
2022/12/08 01:40:44;;;;;;;3.55;1.00;;;2.90;99.90;;;;;;6170024;23;20404;-75
2022/12/08 01:43:20;;;;;;;1.98;0.90;;;3.00;99.90;;;;;;6195046;23;20067;-76
2022/12/08 01:45:46;;;;;;;3.90;1.20;;;4.30;99.90;;;;;;6194027;23;20008;-76
2022/12/08 01:48:26;;;;;;;3.78;1.60;;;3.00;99.90;;;;;;6194818;23;20001;-76
2022/12/08 01:50:54;;;;;;;4.40;1.23;;;2.90;99.90;;;;;;6245283;23;20387;-76
2022/12/08 01:53:27;;;;;;;2.40;1.13;;;3.00;99.90;;;;;;6220873;23;20010;-77
2022/12/08 01:55:57;;;;;;;10.05;1.77;;;3.00;99.90;;;;;;6194062;23;20024;-77
2022/12/08 01:58:33;;;;;;;3.13;1.10;;;3.10;99.90;;;;;;6195029;23;20017;-76
2022/12/08 02:00:59;;;;;;;6.78;1.20;;;2.80;99.90;;;;;;6218664;23;20058;-76
2022/12/08 02:03:35;;;;;;;2.88;1.20;;;3.30;99.90;;;;;;6194000;23;20008;-75
2022/12/08 02:06:02;;;;;;;5.13;1.90;;;2.90;99.90;;;;;;6218214;23;20214;-76
2022/12/08 02:08:28;;;;;;;1.70;1.10;;;3.20;99.90;;;;;;6197095;23;20063;-76
2022/12/08 02:10:54;;;;;;;3.75;1.98;;;3.00;99.90;;;;;;6197644;23;20067;-76
2022/12/08 02:13:22;;;;;;;0.90;0.68;;;3.00;99.90;;;;;;6221336;23;20034;-76
2022/12/08 02:16:26;;;;;;;2.85;0.82;;;3.40;99.90;;;;;;6196934;23;20017;-76
2022/12/08 02:19:00;;;;;;;1.58;0.68;;;3.10;99.90;;;;;;6222200;23;20047;-75
2022/12/08 02:21:40;;;;;;;2.58;0.98;;;3.10;99.90;;;;;;6222155;23;20017;-75
2022/12/08 02:24:24;;;;;;;5.43;0.65;;;2.80;99.90;;;;;;6196928;23;20314;-75
2022/12/08 02:27:07;;;;;;;1.48;0.50;;;3.50;99.90;;;;;;6196826;23;20020;-76
2022/12/08 02:29:55;;;;;;;0.73;0.60;;;2.80;99.90;;;;;;6221398;23;20012;-77
2022/12/08 02:32:42;;;;;;;2.15;0.40;;;2.80;99.90;;;;;;6221807;23;20036;-76
2022/12/08 02:35:46;;;;;;;3.97;0.35;;;2.70;99.90;;;;;;6196488;23;20203;-77
2022/12/08 02:38:44;;;;;;;1.08;0.40;;;2.80;99.90;;;;;;6208056;23;20023;-78
2022/12/08 02:41:52;;;;;;;1.90;0.57;;;2.80;99.90;;;;;;6221357;23;20019;-78
2022/12/08 02:44:27;;;;;;;3.70;0.50;;;2.70;99.90;;;;;;6196435;23;20421;-77
2022/12/08 02:47:20;;;;;;;4.07;0.50;;;4.10;99.90;;;;;;6196888;23;20012;-77
2022/12/08 02:49:46;;;;;;;0.70;0.57;;;2.70;99.90;;;;;;6217967;23;20020;-77
2022/12/08 02:52:12;;;;;;;4.22;0.55;;;4.20;99.90;;;;;;6172510;23;20012;-76
2022/12/08 02:54:40;;;;;;;2.92;0.70;;;2.70;99.90;;;;;;6221723;23;20016;-76
2022/12/08 02:57:35;;;;;;;2.10;1.52;;;4.10;99.90;;;;;;6195455;23;20016;-76
2022/12/08 03:00:01;;;;;;;0.95;0.75;;;3.00;99.90;;;;;;6221606;23;20371;-76
2022/12/08 03:02:42;;;;;;;1.00;0.90;;;2.60;99.90;;;;;;6221733;23;20058;-76
2022/12/08 03:05:29;;;;;;;1.90;1.05;;;2.80;99.90;;;;;;6221459;23;20020;-77
2022/12/08 03:08:38;;;;;;;1.52;1.20;;;2.50;99.90;;;;;;6221946;23;20018;-76
2022/12/08 03:11:27;;;;;;;2.40;1.38;;;2.50;99.90;;;;;;6221340;23;20017;-76
2022/12/08 03:13:58;;;;;;;3.20;1.30;;;2.90;99.90;;;;;;6196264;23;20020;-76
2022/12/08 03:16:30;;;;;;;2.03;1.10;;;2.50;99.90;;;;;;6220519;23;20013;-76
2022/12/08 03:19:08;;;;;;;2.28;1.00;;;2.80;99.90;;;;;;6196714;23;20307;-76
2022/12/08 03:21:34;;;;;;;1.30;0.93;;;2.50;99.90;;;;;;6220000;23;20051;-76
2022/12/08 03:24:03;;;;;;;1.55;1.13;;;2.70;99.90;;;;;;6220877;23;20027;-75
2022/12/08 03:26:57;;;;;;;1.55;0.80;;;4.00;99.90;;;;;;6194840;23;20334;-75
2022/12/08 03:29:23;;;;;;;0.82;0.70;;;2.60;99.90;;;;;;6192218;23;20013;-75
2022/12/08 03:31:57;;;;;;;0.80;0.60;;;2.90;99.90;;;;;;6171015;23;20064;-75
2022/12/08 03:34:27;;;;;;;2.28;0.63;;;4.20;99.90;;;;;;6221122;23;20013;-75
2022/12/08 03:36:53;;;;;;;0.90;0.68;;;4.60;99.90;;;;;;6222574;23;20016;-74
2022/12/08 03:39:18;;;;;;;0.75;0.60;;;3.10;99.90;;;;;;6220564;23;20070;-74
2022/12/08 03:41:45;;;;;;;1.38;0.63;;;2.50;99.90;;;;;;6194984;23;20020;-75
2022/12/08 03:44:11;;;;;;;1.50;0.95;;;3.80;99.90;;;;;;6221059;23;20080;-77
2022/12/08 03:46:37;;;;;;;2.25;0.98;;;2.60;99.90;;;;;;6221619;23;20012;-77
2022/12/08 03:49:03;;;;;;;2.63;1.15;;;2.40;99.90;;;;;;6222138;23;20191;-76
2022/12/08 03:51:30;;;;;;;4.47;1.33;;;4.50;99.90;;;;;;6170853;23;20077;-76
2022/12/08 03:53:56;;;;;;;3.00;1.20;;;2.50;99.90;;;;;;6170503;23;20008;-77
2022/12/08 03:56:30;;;;;;;2.47;1.55;;;2.70;99.90;;;;;;6196458;23;20337;-76
2022/12/08 03:58:56;;;;;;;5.78;1.77;;;4.00;99.90;;;;;;6221956;23;20160;-78
2022/12/08 04:01:23;;;;;;;2.42;1.65;;;2.80;99.90;;;;;;6195495;23;20076;-78
2022/12/08 04:03:49;;;;;;;5.22;1.70;;;2.80;99.90;;;;;;6220260;23;20012;-78
2022/12/08 04:06:15;;;;;;;1.90;1.30;;;2.50;99.90;;;;;;6196796;23;20062;-77
2022/12/08 04:08:41;;;;;;;2.55;1.75;;;3.40;99.90;;;;;;6221849;23;20015;-77
2022/12/08 04:11:07;;;;;;;3.40;1.92;;;2.90;99.90;;;;;;6196446;23;20036;-77
2022/12/08 04:13:35;;;;;;;2.97;1.80;;;2.90;99.90;;;;;;6220732;23;20321;-77
2022/12/08 04:16:01;;;;;;;3.05;1.70;;;3.80;99.90;;;;;;6221871;23;20027;-78
2022/12/08 04:18:27;;;;;;;3.33;1.50;;;3.60;99.90;;;;;;6221036;23;20090;-76
2022/12/08 04:20:52;;;;;;;1.92;1.27;;;2.90;99.90;;;;;;6195227;23;20029;-77
2022/12/08 04:23:18;;;;;;;4.60;1.30;;;2.60;99.90;;;;;;6219613;23;20009;-77
2022/12/08 04:25:44;;;;;;;1.90;1.10;;;3.00;99.90;;;;;;6220423;23;20012;-76
2022/12/08 04:28:10;;;;;;;2.13;1.30;;;3.90;99.90;;;;;;6171400;23;20005;-75
2022/12/08 04:30:38;;;;;;;1.55;1.10;;;2.70;99.90;;;;;;6194914;23;20070;-75
2022/12/08 04:33:05;;;;;;;2.20;1.13;;;4.50;99.90;;;;;;6220909;23;20117;-76
2022/12/08 04:35:30;;;;;;;1.63;0.90;;;3.10;99.90;;;;;;6219066;23;20050;-76
2022/12/08 04:37:56;;;;;;;3.28;1.08;;;2.80;99.90;;;;;;6195310;23;20008;-75
2022/12/08 04:40:22;;;;;;;1.23;0.90;;;4.40;99.90;;;;;;6218823;23;20119;-75
2022/12/08 04:42:48;;;;;;;2.33;0.90;;;4.60;99.90;;;;;;6219640;23;20036;-76
2022/12/08 04:45:13;;;;;;;1.25;0.80;;;4.60;99.90;;;;;;6194757;23;20024;-77
2022/12/08 04:47:39;;;;;;;2.35;1.40;;;2.70;99.90;;;;;;6196267;23;20020;-76
2022/12/08 04:50:06;;;;;;;1.77;0.90;;;2.80;99.90;;;;;;6220520;23;20016;-77
2022/12/08 04:52:32;;;;;;;1.10;0.90;;;3.00;99.90;;;;;;6220773;23;20051;-75
2022/12/08 04:54:57;;;;;;;4.60;1.02;;;4.90;99.90;;;;;;6170673;23;20192;-77
2022/12/08 04:57:23;;;;;;;2.33;0.95;;;2.80;99.90;;;;;;6171352;23;20024;-76
2022/12/08 04:59:49;;;;;;;2.67;0.80;;;3.60;99.90;;;;;;6220671;23;20067;-77
2022/12/08 05:02:14;;;;;;;2.88;0.80;;;2.70;99.90;;;;;;6220888;23;20071;-77
2022/12/08 05:04:40;;;;;;;2.20;0.80;;;4.30;99.90;;;;;;6169654;23;20020;-78
2022/12/08 05:07:06;;;;;;;4.75;0.70;;;3.70;99.90;;;;;;6220523;23;20024;-76
2022/12/08 05:09:34;;;;;;;4.05;0.75;;;3.60;99.90;;;;;;6196734;23;20214;-76
2022/12/08 05:12:00;;;;;;;2.45;0.98;;;4.50;99.90;;;;;;6218562;23;20016;-77
2022/12/08 05:14:25;;;;;;;2.45;0.57;;;2.70;99.90;;;;;;6220235;23;20027;-75
2022/12/08 05:16:51;;;;;;;0.70;0.60;;;2.50;99.90;;;;;;6220007;23;20008;-75
2022/12/08 05:19:17;;;;;;;1.20;0.75;;;3.50;99.90;;;;;;6219366;23;20021;-75
2022/12/08 05:21:43;;;;;;;5.90;0.60;;;3.90;99.90;;;;;;6219834;23;20028;-76
2022/12/08 05:24:09;;;;;;;1.23;0.50;;;2.80;99.90;;;;;;6195415;23;20223;-76
2022/12/08 05:26:34;;;;;;;4.53;0.65;;;2.70;99.90;;;;;;6219910;23;20012;-76
2022/12/08 05:29:00;;;;;;;2.05;0.55;;;4.10;99.90;;;;;;6194430;23;20020;-75
2022/12/08 05:31:26;;;;;;;2.30;0.50;;;4.50;99.90;;;;;;6195617;23;20008;-76
2022/12/08 05:33:52;;;;;;;0.32;0.32;;;2.60;99.90;;;;;;6219764;23;20008;-76
2022/12/08 05:36:18;;;;;;;2.33;0.65;;;3.00;99.90;;;;;;6220061;23;20005;-76
2022/12/08 05:38:45;;;;;;;1.40;0.80;;;4.20;99.90;;;;;;6194854;23;20068;-76
2022/12/08 05:41:17;;;;;;;3.95;0.90;;;5.00;99.90;;;;;;6195409;23;20015;-75
2022/12/08 05:43:43;;;;;;;3.38;1.15;;;4.80;99.90;;;;;;6221710;23;20027;-75
2022/12/08 05:46:10;;;;;;;3.60;1.45;;;3.00;99.90;;;;;;6197162;23;20020;-77
2022/12/08 05:48:36;;;;;;;4.90;1.30;;;3.80;99.90;;;;;;6196860;23;20090;-78
2022/12/08 05:51:01;;;;;;;3.20;1.70;;;2.60;99.90;;;;;;6222489;23;20009;-76
2022/12/08 05:53:27;;;;;;;5.25;1.50;;;3.70;99.90;;;;;;6222625;23;20026;-76
2022/12/08 05:55:53;;;;;;;5.97;1.50;;;4.20;99.90;;;;;;6195867;23;20063;-76
2022/12/08 05:58:21;;;;;;;3.20;1.65;;;2.90;99.90;;;;;;6222612;23;20064;-77
2022/12/08 06:00:48;;;;;;;2.90;1.30;;;2.50;99.90;;;;;;6223087;23;20019;-76
2022/12/08 06:03:15;;;;;;;2.40;1.38;;;3.00;99.90;;;;;;6223512;23;20047;-76
2022/12/08 06:05:42;;;;;;;3.30;1.85;;;4.10;99.90;;;;;;6221279;23;20020;-76
2022/12/08 06:08:08;;;;;;;3.63;1.33;;;2.90;99.90;;;;;;6197493;23;20019;-76
2022/12/08 06:10:33;;;;;;;3.58;1.50;;;2.90;99.90;;;;;;6171745;23;20068;-77
2022/12/08 06:12:59;;;;;;;4.53;1.20;;;3.10;99.90;;;;;;6173564;23;20315;-77
2022/12/08 06:15:25;;;;;;;1.15;0.70;;;2.90;99.90;;;;;;6197329;23;20012;-77
2022/12/08 06:17:51;;;;;;;6.70;0.80;;;2.30;99.90;;;;;;6197924;23;20039;-77
2022/12/08 06:20:17;;;;;;;1.40;0.75;;;3.30;99.90;;;;;;6221902;23;20020;-78
2022/12/08 06:22:42;;;;;;;5.63;1.20;;;2.80;99.90;;;;;;6197068;23;20024;-75
2022/12/08 06:25:08;;;;;;;3.25;1.10;;;3.90;99.90;;;;;;6196686;23;20330;-76
2022/12/08 06:27:34;;;;;;;1.25;0.60;;;2.70;99.90;;;;;;6222288;23;20192;-76
2022/12/08 06:30:00;;;;;;;1.55;0.90;;;2.60;99.90;;;;;;6171141;23;20020;-77
2022/12/08 06:32:25;;;;;;;3.42;0.55;;;2.20;99.90;;;;;;6221926;23;20032;-77
2022/12/08 06:34:51;;;;;;;4.07;1.08;;;3.20;99.90;;;;;;6196368;23;20039;-77
2022/12/08 06:37:17;;;;;;;1.42;0.75;;;3.20;99.90;;;;;;6221332;23;20016;-77
2022/12/08 06:39:43;;;;;;;2.45;0.80;;;3.50;99.90;;;;;;6196825;23;20111;-77
2022/12/08 06:44:53;;;;;;;1.95;0.80;;;4.50;99.90;;;;;;6222358;23;20128;-77
2022/12/08 06:47:20;;;;;;;2.60;0.90;;;4.10;99.90;;;;;;6222263;23;20295;-77
2022/12/08 06:49:46;;;;;;;5.28;1.42;;;2.10;99.90;;;;;;6220666;23;20012;-76
2022/12/08 06:52:12;;;;;;;3.97;0.88;;;4.70;99.90;;;;;;6221492;23;20009;-75
2022/12/08 06:54:37;;;;;;;4.25;1.00;;;4.30;99.90;;;;;;6221760;23;20036;-75
2022/12/08 06:57:03;;;;;;;3.78;1.25;;;3.30;99.90;;;;;;6222211;23;20009;-75
2022/12/08 06:59:30;;;;;;;6.70;1.40;;;2.50;99.90;;;;;;6196860;23;20047;-75
2022/12/08 07:01:56;;;;;;;2.08;1.10;;;2.50;99.90;;;;;;6219883;23;20020;-75
2022/12/08 07:04:22;;;;;;;2.10;1.10;;;2.80;99.90;;;;;;6171093;23;20020;-75
2022/12/08 07:06:47;;;;;;;1.10;0.80;;;2.50;99.90;;;;;;6221236;23;20071;-76
2022/12/08 07:09:14;;;;;;;3.55;1.17;;;3.90;99.90;;;;;;6221657;23;20013;-75
2022/12/08 07:11:39;;;;;;;1.33;1.08;;;4.00;99.90;;;;;;6220954;23;20176;-76
2022/12/08 07:14:05;;;;;;;1.65;1.10;;;2.10;99.90;;;;;;6221483;23;20016;-77
2022/12/08 07:16:31;;;;;;;5.25;0.88;;;2.50;99.90;;;;;;6221120;23;20016;-77
2022/12/08 07:18:56;;;;;;;1.35;0.80;;;3.50;99.90;;;;;;6221046;23;20039;-76
2022/12/08 07:21:22;;;;;;;1.38;0.80;;;2.10;99.90;;;;;;6222073;23;20020;-78
2022/12/08 07:23:49;;;;;;;2.47;1.20;;;3.90;99.90;;;;;;6197472;23;20019;-77
2022/12/08 07:26:14;;;;;;;1.52;0.95;;;1.80;99.90;;;;;;6222929;23;20079;-78
2022/12/08 07:28:41;;;;;;;2.75;1.00;;;3.90;99.90;;;;;;6196149;23;20020;-78
2022/12/08 07:31:16;;;;;;;2.67;1.05;;;3.50;99.90;;;;;;6171659;23;20311;-76
2022/12/08 07:33:42;;;;;;;2.80;1.10;;;2.20;99.90;;;;;;6219957;23;20027;-76
2022/12/08 07:36:08;;;;;;;7.53;1.58;;;1.50;99.90;;;;;;6196505;23;20332;-75
2022/12/08 07:38:34;;;;;;;3.13;1.70;;;1.90;99.90;;;;;;6219142;23;20008;-76
2022/12/08 07:41:00;;;;;;;3.63;2.22;;;1.70;99.90;;;;;;6194975;23;20039;-76
2022/12/08 07:43:26;;;;;;;7.07;3.63;;;1.80;99.90;;;;;;6219290;23;20008;-77
2022/12/08 07:45:52;;;;;;;21.23;7.50;;;2.30;99.90;;;;;;6195075;23;20005;-77
2022/12/08 07:48:18;;;;;;;9.05;5.70;;;3.00;99.90;;;;;;6219919;23;20008;-79
2022/12/08 07:50:44;;;;;;;7.00;4.50;;;4.00;99.90;;;;;;6194579;23;20020;-77
2022/12/08 07:53:10;;;;;;;8.68;5.57;;;1.70;99.90;;;;;;6220053;23;20336;-78
2022/12/08 07:55:43;;;;;;;8.55;4.68;;;3.90;99.90;;;;;;6220845;23;20275;-76
2022/12/08 07:58:09;;;;;;;7.30;3.38;;;2.20;99.90;;;;;;6220952;23;20013;-76
2022/12/08 08:00:35;;;;;;;4.78;2.97;;;2.20;99.90;;;;;;6220680;23;20071;-77
2022/12/08 08:03:01;;;;;;;5.63;2.90;;;2.10;99.90;;;;;;6195632;23;20016;-74
2022/12/08 08:06:22;;;;;;;;;;;;;;;;;;;;;
2022/12/08 08:10:22;;;;;;;;;;;;;;;;;;;;;
2022/12/08 08:13:00;;;;;;;6.55;3.13;;;4.50;99.90;;;;;;6101358;23;20010;-75
2022/12/08 08:19:06;;;;;;;5.32;2.50;;;1.50;99.90;;;;;;6196987;23;20084;-74
2022/12/08 08:21:32;;;;;;;5.60;1.92;;;1.70;99.90;;;;;;6217806;23;20399;-75
2022/12/08 08:24:00;;;;;;;3.45;2.03;;;4.00;99.90;;;;;;6218329;23;20020;-74
2022/12/08 08:26:26;;;;;;;6.78;1.85;;;1.70;99.90;;;;;;6192757;23;20018;-74
2022/12/08 08:28:52;;;;;;;4.55;2.00;;;1.90;99.90;;;;;;6168232;23;20020;-74
2022/12/08 08:31:22;;;;;;;7.07;2.05;;;1.60;99.90;;;;;;6192356;23;20079;-76
2022/12/08 08:33:48;;;;;;;3.17;2.17;;;1.70;99.90;;;;;;6217647;23;20355;-77
2022/12/08 08:36:14;;;;;;;2.92;2.13;;;2.70;99.90;;;;;;6192628;23;20009;-75
2022/12/08 08:38:41;;;;;;;6.53;2.20;;;3.50;99.90;;;;;;6218196;23;20008;-74
2022/12/08 08:41:10;;;;;;;6.05;2.30;;;1.90;99.90;;;;;;6218259;23;20009;-76
2022/12/08 08:43:38;;;;;;;7.38;2.60;;;1.80;99.90;;;;;;6191565;23;20040;-75
2022/12/08 08:46:05;;;;;;;3.85;2.28;;;3.30;99.90;;;;;;6168929;23;20015;-75
2022/12/08 08:48:31;;;;;;;4.95;2.42;;;2.30;99.90;;;;;;6193026;23;20023;-74
2022/12/08 08:50:58;;;;;;;5.88;2.47;;;1.90;99.90;;;;;;6217201;23;20008;-75
2022/12/08 08:53:24;;;;;;;6.63;2.50;;;3.70;99.90;;;;;;6192483;23;20020;-75
2022/12/08 08:55:50;;;;;;;4.53;2.20;;;2.30;99.90;;;;;;6191669;23;20031;-75
2022/12/08 08:58:16;;;;;;;7.13;2.05;;;2.30;99.90;;;;;;6218002;23;20071;-75
2022/12/08 09:00:42;;;;;;;4.50;2.00;;;3.20;99.90;;;;;;6193214;23;20012;-76
2022/12/08 09:03:08;;;;;;;7.07;2.15;;;2.40;99.90;;;;;;6190799;23;20016;-75
2022/12/08 09:05:34;;;;;;;8.52;2.33;;;2.60;99.90;;;;;;6190752;23;20342;-75
2022/12/08 09:07:59;;;;;;;3.85;2.03;;;2.20;99.90;;;;;;6190016;23;20063;-75
2022/12/08 09:10:26;;;;;;;5.07;2.50;;;2.80;99.90;;;;;;6192157;23;20017;-75
2022/12/08 09:12:52;;;;;;;7.88;2.60;;;3.90;99.90;;;;;;6218469;23;20016;-75
2022/12/08 09:15:19;;;;;;;7.60;2.65;;;2.50;99.90;;;;;;6217834;23;20016;-75
2022/12/08 09:17:45;;;;;;;16.33;2.85;;;3.20;99.90;;;;;;6192963;23;20611;-75
2022/12/08 09:20:11;;;;;;;4.85;2.13;;;3.50;99.90;;;;;;6217005;23;20021;-74
2022/12/08 09:22:37;;;;;;;3.83;1.80;;;;;;;;;;6192697;23;20024;-74
2022/12/08 09:25:03;;;;;;;8.55;3.25;;;4.50;99.90;;;;;;6218624;23;20358;-75
2022/12/08 09:27:30;;;;;;;5.15;3.17;;;4.30;99.90;;;;;;6193732;23;20019;-74
2022/12/08 09:29:57;;;;;;;4.72;2.90;;;4.80;99.90;;;;;;6193166;23;20051;-74
2022/12/08 09:32:22;;;;;;;6.10;2.40;;;5.00;99.90;;;;;;6164163;23;20294;-74
2022/12/08 09:34:48;;;;;;;10.38;2.95;;;5.60;99.90;;;;;;6216088;23;20012;-75
2022/12/08 09:37:14;;;;;;;3.45;1.60;;;4.50;99.90;;;;;;6190915;23;20021;-75
2022/12/08 09:39:39;;;;;;;3.58;2.00;;;4.10;99.90;;;;;;6216850;23;20380;-74
2022/12/08 09:42:06;;;;;;;4.55;1.80;;;3.60;99.90;;;;;;6193008;23;20018;-74
2022/12/08 09:45:02;;;;;;;5.03;2.22;;;4.00;99.90;;;;;;6193838;23;20012;-75
2022/12/08 09:47:57;;;;;;;3.58;2.30;;;3.30;99.90;;;;;;6219940;23;20213;-76
2022/12/08 09:50:32;;;;;;;7.32;1.92;;;3.30;99.90;;;;;;6203831;23;20076;-74
2022/12/08 09:53:04;;;;;;;2.92;1.35;;;3.10;99.90;;;;;;6216970;23;20382;-74
2022/12/08 09:55:47;;;;;;;3.58;1.92;;;3.40;99.90;;;;;;6217167;23;20066;-74
2022/12/08 09:58:38;;;;;;;3.67;1.60;;;3.10;99.90;;;;;;6217311;23;20013;-74
2022/12/08 10:01:04;;;;;;;3.00;1.30;;;3.20;99.90;;;;;;6195016;23;20055;-74
2022/12/08 10:03:30;;;;;;;5.32;1.50;;;3.40;99.90;;;;;;6220771;23;20020;-75
2022/12/08 10:06:29;;;;;;;5.85;1.52;;;2.90;99.90;;;;;;6217631;23;20035;-74
2022/12/08 10:09:23;;;;;;;4.43;1.30;;;2.80;99.90;;;;;;6191546;23;20020;-74
2022/12/08 10:12:09;;;;;;;3.83;1.50;;;2.60;99.90;;;;;;6188263;23;20199;-74
2022/12/08 10:14:42;;;;;;;3.95;1.30;;;2.60;99.90;;;;;;6217748;23;20051;-75
2022/12/08 10:17:33;;;;;;;3.75;1.92;;;3.10;99.90;;;;;;6216532;23;20016;-75
2022/12/08 10:20:20;;;;;;;3.63;1.60;;;2.90;99.90;;;;;;6209063;23;20012;-75
2022/12/08 10:22:54;;;;;;;5.90;1.90;;;3.10;99.90;;;;;;6215792;23;20079;-73
2022/12/08 10:25:36;;;;;;;5.88;2.20;;;3.50;99.90;;;;;;6217496;23;20027;-75
2022/12/08 10:28:01;;;;;;;3.15;1.60;;;4.30;99.90;;;;;;6219689;23;20502;-76
2022/12/08 10:30:27;;;;;;;2.80;1.60;;;5.40;99.90;;;;;;6195073;23;20019;-78
2022/12/08 10:32:54;;;;;;;6.13;1.70;;;4.80;99.90;;;;;;6168652;23;20013;-77
2022/12/08 10:35:21;;;;;;;7.70;2.00;;;6.00;99.90;;;;;;6221282;23;20080;-79
2022/12/08 10:38:01;;;;;;;8.60;2.33;;;6.40;99.90;;;;;;6170013;23;20035;-77
2022/12/08 10:40:34;;;;;;;4.28;2.05;;;7.10;99.90;;;;;;6220391;23;20008;-78
2022/12/08 10:43:00;;;;;;;3.58;1.73;;;7.50;99.90;;;;;;6195570;23;20319;-78
2022/12/08 10:45:37;;;;;;;4.78;1.77;;;7.50;99.90;;;;;;6195051;23;20028;-76
2022/12/08 10:48:15;;;;;;;7.22;1.98;;;7.40;99.90;;;;;;6219784;23;20012;-79
2022/12/08 10:50:44;;;;;;;2.83;1.77;;;7.80;99.90;;;;;;6216791;23;20255;-75
2022/12/08 10:53:14;;;;;;;4.47;1.60;;;7.70;99.90;;;;;;6191604;23;20016;-75
2022/12/08 10:55:44;;;;;;;3.45;1.48;;;7.80;99.90;;;;;;6192855;23;20095;-75
2022/12/08 10:58:41;;;;;;;2.38;1.00;;;8.00;99.90;;;;;;6193280;23;20009;-76
2022/12/08 11:01:20;;;;;;;3.20;1.20;;;7.00;99.90;;;;;;6217426;23;20428;-75
2022/12/08 11:04:01;;;;;;;3.25;1.50;;;6.60;99.90;;;;;;6192358;23;20020;-75
2022/12/08 11:06:37;;;;;;;2.92;1.30;;;6.10;99.90;;;;;;6217770;23;20436;-73
2022/12/08 11:09:20;;;;;;;3.92;1.40;;;5.70;99.90;;;;;;6218976;23;20009;-75
2022/12/08 11:11:55;;;;;;;1.75;1.20;;;5.30;99.90;;;;;;6221136;23;20012;-74
2022/12/08 11:14:46;;;;;;;3.28;1.35;;;5.00;99.90;;;;;;6223194;23;20004;-75
2022/12/08 11:17:15;;;;;;;4.30;1.60;;;5.00;99.90;;;;;;6220072;23;20075;-78
2022/12/08 11:19:53;;;;;;;4.28;1.48;;;4.70;99.90;;;;;;6220312;23;20071;-77
2022/12/08 11:22:31;;;;;;;6.28;1.83;;;5.40;99.90;;;;;;6195272;23;20063;-77
2022/12/08 11:25:09;;;;;;;2.72;1.35;;;4.40;99.90;;;;;;6194689;23;20024;-77
2022/12/08 11:27:43;;;;;;;4.22;1.60;;;4.30;99.90;;;;;;6217784;23;20331;-78
2022/12/08 11:30:14;;;;;;;3.30;1.20;;;4.20;99.90;;;;;;6214859;23;20049;-78
2022/12/08 11:32:43;;;;;;;2.15;1.10;;;4.60;99.90;;;;;;6215294;23;20015;-76
2022/12/08 11:35:50;;;;;;;4.22;1.52;;;4.60;99.90;;;;;;6194019;23;20017;-77
2022/12/08 11:38:23;;;;;;;4.10;1.30;;;4.60;99.90;;;;;;6160907;23;20222;-76
2022/12/08 11:41:15;;;;;;;4.85;1.38;;;4.20;99.90;;;;;;6218985;23;20214;-76
2022/12/08 11:44:23;;;;;;;3.92;1.10;;;4.30;99.90;;;;;;6218736;23;20064;-75
2022/12/08 11:46:59;;;;;;;2.17;1.10;;;4.40;99.90;;;;;;6216017;23;20478;-75
2022/12/08 11:49:34;;;;;;;3.25;1.20;;;4.70;99.90;;;;;;6215514;23;20377;-76
2022/12/08 11:52:25;;;;;;;2.33;1.10;;;5.60;99.90;;;;;;6219769;23;20669;-76
2022/12/08 11:55:13;;;;;;;2.53;0.85;;;4.90;99.90;;;;;;6193649;23;20039;-75
2022/12/08 11:57:39;;;;;;;1.02;0.77;;;5.00;99.90;;;;;;6193880;23;20009;-77
2022/12/08 12:00:08;;;;;;;2.70;0.80;;;4.70;99.90;;;;;;6168691;23;20494;-76
2022/12/08 12:02:41;;;;;;;1.52;0.93;;;4.70;99.90;;;;;;6194020;23;20020;-76
2022/12/08 12:05:55;;;;;;;1.90;1.20;;;4.70;99.90;;;;;;6219193;23;20247;-75
2022/12/08 12:08:29;;;;;;;3.03;1.10;;;4.40;99.90;;;;;;6139174;23;20342;-76
2022/12/08 12:11:01;;;;;;;2.08;0.93;;;4.70;99.90;;;;;;6183963;23;20060;-75
2022/12/08 12:13:42;;;;;;;3.17;1.48;;;4.70;99.90;;;;;;6194421;23;20027;-76
2022/12/08 12:16:10;;;;;;;4.18;1.02;;;4.60;99.90;;;;;;6194191;23;20036;-76
2022/12/08 12:18:50;;;;;;;1.67;1.00;;;4.60;99.90;;;;;;6192620;23;20071;-76
2022/12/08 12:21:22;;;;;;;1.25;0.90;;;4.40;99.90;;;;;;6216828;23;20031;-76
2022/12/08 12:23:57;;;;;;;1.25;0.73;;;4.20;99.90;;;;;;6194037;23;20040;-75
2022/12/08 12:26:26;;;;;;;8.70;0.88;;;4.10;99.90;;;;;;6218867;23;20009;-75
2022/12/08 12:29:04;;;;;;;3.05;1.15;;;4.50;99.90;;;;;;6219143;23;20031;-76
2022/12/08 12:31:40;;;;;;;1.33;0.75;;;4.60;99.90;;;;;;6193789;23;20008;-75
2022/12/08 12:34:36;;;;;;;2.03;0.85;;;4.60;99.90;;;;;;6216200;23;20303;-75
2022/12/08 12:37:04;;;;;;;;;;;4.30;99.90;;;;;;6219008;23;20068;-76
2022/12/08 12:39:44;;;;;;;1.80;0.80;;;4.50;99.90;;;;;;6219390;23;19915;-78
2022/12/08 12:42:33;;;;;;;2.42;0.90;;;5.80;99.90;;;;;;6217605;23;20047;-76
2022/12/08 12:45:24;;;;;;;0.95;0.60;;;4.60;99.90;;;;;;6219329;23;20059;-77
2022/12/08 12:47:51;;;;;;;2.17;0.90;;;4.60;99.90;;;;;;6211674;23;20111;-73
2022/12/08 12:50:32;;;;;;;2.13;0.77;;;4.20;99.90;;;;;;6216703;23;20027;-74
2022/12/08 12:53:01;;;;;;;1.17;0.80;;;4.30;99.90;;;;;;6216419;23;20015;-74
2022/12/08 12:55:53;;;;;;;4.35;0.80;;;4.20;99.90;;;;;;6218662;23;20306;-74
2022/12/08 12:58:28;;;;;;;1.63;0.80;;;4.20;99.90;;;;;;6218989;23;20020;-73
2022/12/08 13:01:32;;;;;;;1.17;0.70;;;4.40;99.90;;;;;;6217129;23;20016;-74
2022/12/08 13:04:09;;;;;;;1.30;0.60;;;4.40;99.90;;;;;;6189745;23;20067;-73
2022/12/08 13:06:42;;;;;;;3.50;0.80;;;4.20;99.90;;;;;;6192476;23;20017;-75
2022/12/08 13:09:30;;;;;;;2.65;0.50;;;4.00;99.90;;;;;;6216939;23;20040;-75
2022/12/08 13:11:59;;;;;;;1.17;0.38;;;4.20;99.90;;;;;;6215104;23;20027;-76
2022/12/08 13:14:43;;;;;;;0.30;0.30;;;4.00;99.90;;;;;;6193604;23;20000;-74
2022/12/08 13:17:12;;;;;;;1.30;0.30;;;3.80;99.90;;;;;;6217279;23;20009;-75
2022/12/08 13:19:39;;;;;;;0.85;0.30;;;3.90;99.90;;;;;;6192632;23;20023;-74
2022/12/08 13:22:44;;;;;;;1.65;0.35;;;4.60;99.90;;;;;;6193297;23;20218;-76
2022/12/08 13:25:39;;;;;;;5.07;0.40;;;3.90;99.90;;;;;;6186147;23;20017;-75
2022/12/08 13:28:28;;;;;;;1.92;0.50;;;3.10;99.90;;;;;;6212280;23;20020;-75
2022/12/08 13:30:58;;;;;;;1.73;0.40;;;3.30;99.90;;;;;;6192980;23;20013;-74
2022/12/08 13:33:39;;;;;;;0.70;0.40;;;3.10;99.90;;;;;;6167168;23;20023;-75
2022/12/08 13:36:20;;;;;;;1.83;0.40;;;3.00;99.90;;;;;;6216384;23;20008;-74
2022/12/08 13:38:47;;;;;;;0.63;0.30;;;2.90;99.90;;;;;;6192243;23;20015;-76